sensor_id;sensor_type;location;lat;lon;timestamp;P1;durP1;ratioP1;P2;durP2;ratioP2
51491;SDS011;37569;50.548;8.778;2023-04-25T00:01:39;16.1;;;10.7;;
51491;SDS011;37569;50.548;8.778;2023-04-25T00:06:40;15.5;;;10.9;;
51491;SDS011;37569;50.548;8.778;2023-04-25T00:11:40;14.5;;;10.8;;
51491;SDS011;37569;50.548;8.778;2023-04-25T00:16:41;14.9;;;11.3;;
51491;SDS011;37569;50.548;8.778;2023-04-25T00:21:41;15.1;;;11.1;;
51491;SDS011;37569;50.548;8.778;2023-04-25T00:26:41;16.2;;;11.4;;
51491;SDS011;37569;50.548;8.778;2023-04-25T00:31:42;17.1;;;12;;
51491;SDS011;37569;50.548;8.778;2023-04-25T00:36:42;16.9;;;11.7;;
51491;SDS011;37569;50.548;8.778;2023-04-25T00:41:42;15.7;;;11.7;;
51491;SDS011;37569;50.548;8.778;2023-04-25T00:46:43;17.4;;;11.1;;
51491;SDS011;37569;50.548;8.778;2023-04-25T00:51:43;14.2;;;10.7;;
51491;SDS011;37569;50.548;8.778;2023-04-25T00:56:44;13.7;;;10.4;;
51491;SDS011;37569;50.548;8.778;2023-04-25T01:01:44;12.9;;;9.5;;
51491;SDS011;37569;50.548;8.778;2023-04-25T01:06:44;11.6;;;8.8;;
51491;SDS011;37569;50.548;8.778;2023-04-25T01:11:45;12.4;;;8;;
51491;SDS011;37569;50.548;8.778;2023-04-25T01:16:45;8.1;;;6;;
51491;SDS011;37569;50.548;8.778;2023-04-25T01:21:45;7.8;;;5.7;;
51491;SDS011;37569;50.548;8.778;2023-04-25T01:26:46;8.2;;;5.2;;
51491;SDS011;37569;50.548;8.778;2023-04-25T01:31:46;8.7;;;4.9;;
51491;SDS011;37569;50.548;8.778;2023-04-25T01:36:47;9.1;;;5.5;;
51491;SDS011;37569;50.548;8.778;2023-04-25T01:41:47;8.5;;;5.1;;
51491;SDS011;37569;50.548;8.778;2023-04-25T01:46:47;8.8;;;5.1;;
51491;SDS011;37569;50.548;8.778;2023-04-25T01:51:48;8.2;;;4.9;;
51491;SDS011;37569;50.548;8.778;2023-04-25T01:56:49;8.5;;;4.9;;
51491;SDS011;37569;50.548;8.778;2023-04-25T02:01:48;10.7;;;4.7;;
51491;SDS011;37569;50.548;8.778;2023-04-25T02:06:49;9.5;;;4.8;;
51491;SDS011;37569;50.548;8.778;2023-04-25T02:11:49;10;;;5.3;;
51491;SDS011;37569;50.548;8.778;2023-04-25T02:16:49;8.2;;;5.1;;
51491;SDS011;37569;50.548;8.778;2023-04-25T02:21:50;9.5;;;5.5;;
51491;SDS011;37569;50.548;8.778;2023-04-25T02:26:50;12.1;;;5.9;;
51491;SDS011;37569;50.548;8.778;2023-04-25T02:31:50;10.4;;;5.1;;
51491;SDS011;37569;50.548;8.778;2023-04-25T02:36:50;10.8;;;4.9;;
51491;SDS011;37569;50.548;8.778;2023-04-25T02:41:51;9.7;;;5.1;;
51491;SDS011;37569;50.548;8.778;2023-04-25T02:46:51;11.6;;;5.5;;
51491;SDS011;37569;50.548;8.778;2023-04-25T02:51:51;10.6;;;5.5;;
51491;SDS011;37569;50.548;8.778;2023-04-25T02:56:51;9.3;;;5.6;;
51491;SDS011;37569;50.548;8.778;2023-04-25T03:01:52;11;;;5.3;;
51491;SDS011;37569;50.548;8.778;2023-04-25T03:06:52;9;;;4.9;;
51491;SDS011;37569;50.548;8.778;2023-04-25T03:11:52;9.4;;;4.4;;
51491;SDS011;37569;50.548;8.778;2023-04-25T03:16:53;10.2;;;4.5;;
51491;SDS011;37569;50.548;8.778;2023-04-25T03:21:53;9.9;;;4.5;;
51491;SDS011;37569;50.548;8.778;2023-04-25T03:26:53;10.3;;;4.2;;
51491;SDS011;37569;50.548;8.778;2023-04-25T03:31:53;11;;;5.4;;
51491;SDS011;37569;50.548;8.778;2023-04-25T03:36:54;11;;;5.1;;
51491;SDS011;37569;50.548;8.778;2023-04-25T03:41:54;11.4;;;5.6;;
51491;SDS011;37569;50.548;8.778;2023-04-25T03:46:54;13.3;;;5.8;;
51491;SDS011;37569;50.548;8.778;2023-04-25T03:51:54;9.6;;;5.3;;
51491;SDS011;37569;50.548;8.778;2023-04-25T03:56:55;10.9;;;4.3;;
51491;SDS011;37569;50.548;8.778;2023-04-25T04:01:55;7.8;;;4.3;;
51491;SDS011;37569;50.548;8.778;2023-04-25T04:06:55;9.2;;;4.5;;
51491;SDS011;37569;50.548;8.778;2023-04-25T04:11:55;8.1;;;4.5;;
51491;SDS011;37569;50.548;8.778;2023-04-25T04:16:56;7.5;;;4.1;;
51491;SDS011;37569;50.548;8.778;2023-04-25T04:21:56;6.9;;;4;;
51491;SDS011;37569;50.548;8.778;2023-04-25T04:26:56;7.3;;;3.8;;
51491;SDS011;37569;50.548;8.778;2023-04-25T04:31:56;7.3;;;4.3;;
51491;SDS011;37569;50.548;8.778;2023-04-25T04:36:57;7;;;4.1;;
51491;SDS011;37569;50.548;8.778;2023-04-25T04:41:57;8.2;;;4.3;;
51491;SDS011;37569;50.548;8.778;2023-04-25T04:46:57;6.1;;;4.2;;
51491;SDS011;37569;50.548;8.778;2023-04-25T04:51:57;7.2;;;4.4;;
51491;SDS011;37569;50.548;8.778;2023-04-25T04:56:58;6.6;;;4.1;;
51491;SDS011;37569;50.548;8.778;2023-04-25T05:01:58;8.3;;;4.5;;
51491;SDS011;37569;50.548;8.778;2023-04-25T05:06:58;6.8;;;3.6;;
51491;SDS011;37569;50.548;8.778;2023-04-25T05:11:58;5.1;;;3.3;;
51491;SDS011;37569;50.548;8.778;2023-04-25T05:16:59;5;;;3.2;;
51491;SDS011;37569;50.548;8.778;2023-04-25T05:21:59;3.7;;;2.8;;
51491;SDS011;37569;50.548;8.778;2023-04-25T05:27:00;7.1;;;3.2;;
51491;SDS011;37569;50.548;8.778;2023-04-25T05:32:00;5.7;;;3;;
51491;SDS011;37569;50.548;8.778;2023-04-25T05:37:00;5;;;2.8;;
51491;SDS011;37569;50.548;8.778;2023-04-25T05:42:01;5;;;2.9;;
51491;SDS011;37569;50.548;8.778;2023-04-25T05:47:02;5.1;;;3.2;;
51491;SDS011;37569;50.548;8.778;2023-04-25T05:52:02;4;;;3;;
51491;SDS011;37569;50.548;8.778;2023-04-25T05:57:03;4.3;;;3.2;;
51491;SDS011;37569;50.548;8.778;2023-04-25T06:02:04;7.1;;;3.1;;
51491;SDS011;37569;50.548;8.778;2023-04-25T06:07:04;5.7;;;3.3;;
51491;SDS011;37569;50.548;8.778;2023-04-25T06:12:05;6.2;;;3.1;;
51491;SDS011;37569;50.548;8.778;2023-04-25T06:17:06;5;;;3.1;;
51491;SDS011;37569;50.548;8.778;2023-04-25T06:22:07;5.8;;;3.4;;
51491;SDS011;37569;50.548;8.778;2023-04-25T06:27:07;8.2;;;4;;
51491;SDS011;37569;50.548;8.778;2023-04-25T06:32:08;5.4;;;3.5;;
51491;SDS011;37569;50.548;8.778;2023-04-25T06:37:09;6.4;;;3.7;;
51491;SDS011;37569;50.548;8.778;2023-04-25T06:42:09;6.5;;;3.7;;
51491;SDS011;37569;50.548;8.778;2023-04-25T06:47:10;6.1;;;3.9;;
51491;SDS011;37569;50.548;8.778;2023-04-25T06:52:11;7;;;3.8;;
51491;SDS011;37569;50.548;8.778;2023-04-25T06:57:11;6.6;;;3.9;;
51491;SDS011;37569;50.548;8.778;2023-04-25T07:02:12;7.6;;;4.3;;
51491;SDS011;37569;50.548;8.778;2023-04-25T07:07:13;6.5;;;4.2;;
51491;SDS011;37569;50.548;8.778;2023-04-25T07:12:13;5.7;;;3.9;;
51491;SDS011;37569;50.548;8.778;2023-04-25T07:17:14;7.9;;;4.5;;
51491;SDS011;37569;50.548;8.778;2023-04-25T07:22:15;6.4;;;4.4;;
51491;SDS011;37569;50.548;8.778;2023-04-25T07:27:15;7;;;4.1;;
51491;SDS011;37569;50.548;8.778;2023-04-25T07:32:16;6.2;;;4.3;;
51491;SDS011;37569;50.548;8.778;2023-04-25T07:37:17;5.1;;;4;;
51491;SDS011;37569;50.548;8.778;2023-04-25T07:42:17;7.2;;;4.4;;
51491;SDS011;37569;50.548;8.778;2023-04-25T07:47:18;6.2;;;4.2;;
51491;SDS011;37569;50.548;8.778;2023-04-25T07:52:18;6.7;;;4.3;;
51491;SDS011;37569;50.548;8.778;2023-04-25T07:57:19;4.7;;;3.3;;
51491;SDS011;37569;50.548;8.778;2023-04-25T08:02:19;4.6;;;3.7;;
51491;SDS011;37569;50.548;8.778;2023-04-25T08:07:20;4.1;;;3.5;;
51491;SDS011;37569;50.548;8.778;2023-04-25T08:12:20;4.3;;;3.3;;
51491;SDS011;37569;50.548;8.778;2023-04-25T08:17:21;5.3;;;3.4;;
51491;SDS011;37569;50.548;8.778;2023-04-25T08:22:21;5.4;;;3.7;;
51491;SDS011;37569;50.548;8.778;2023-04-25T08:27:22;4.9;;;3.4;;
51491;SDS011;37569;50.548;8.778;2023-04-25T08:32:22;4.7;;;3.2;;
51491;SDS011;37569;50.548;8.778;2023-04-25T08:37:23;5.2;;;3.2;;
51491;SDS011;37569;50.548;8.778;2023-04-25T08:42:24;6.9;;;3.1;;
51491;SDS011;37569;50.548;8.778;2023-04-25T08:47:24;5.1;;;3.2;;
51491;SDS011;37569;50.548;8.778;2023-04-25T08:52:24;4.1;;;2.7;;
51491;SDS011;37569;50.548;8.778;2023-04-25T08:57:25;4;;;2.8;;
51491;SDS011;37569;50.548;8.778;2023-04-25T09:02:26;6;;;3.4;;
51491;SDS011;37569;50.548;8.778;2023-04-25T09:07:26;4.3;;;2.7;;
51491;SDS011;37569;50.548;8.778;2023-04-25T09:12:27;5.6;;;2;;
51491;SDS011;37569;50.548;8.778;2023-04-25T09:17:27;4.8;;;2.2;;
51491;SDS011;37569;50.548;8.778;2023-04-25T09:22:28;3.9;;;2.2;;
51491;SDS011;37569;50.548;8.778;2023-04-25T09:27:28;6;;;2.3;;
51491;SDS011;37569;50.548;8.778;2023-04-25T09:32:29;4.4;;;2.4;;
51491;SDS011;37569;50.548;8.778;2023-04-25T09:37:29;4.6;;;2.4;;
51491;SDS011;37569;50.548;8.778;2023-04-25T09:42:30;5.5;;;2.4;;
51491;SDS011;37569;50.548;8.778;2023-04-25T09:47:30;5.1;;;2.7;;
51491;SDS011;37569;50.548;8.778;2023-04-25T09:52:31;5.6;;;2.5;;
51491;SDS011;37569;50.548;8.778;2023-04-25T09:57:32;4;;;2.4;;
51491;SDS011;37569;50.548;8.778;2023-04-25T10:02:32;6.1;;;2.5;;
51491;SDS011;37569;50.548;8.778;2023-04-25T10:07:33;5.9;;;2.8;;
51491;SDS011;37569;50.548;8.778;2023-04-25T10:12:33;4.8;;;2.1;;
51491;SDS011;37569;50.548;8.778;2023-04-25T10:17:34;5.5;;;1.9;;
51491;SDS011;37569;50.548;8.778;2023-04-25T10:22:35;5.4;;;2.5;;
51491;SDS011;37569;50.548;8.778;2023-04-25T10:27:35;5.8;;;2.2;;
51491;SDS011;37569;50.548;8.778;2023-04-25T10:32:36;6.8;;;2.4;;
51491;SDS011;37569;50.548;8.778;2023-04-25T10:37:36;5.7;;;2.2;;
51491;SDS011;37569;50.548;8.778;2023-04-25T10:42:37;6.5;;;2.3;;
51491;SDS011;37569;50.548;8.778;2023-04-25T10:47:43;4.4;;;1.9;;
51491;SDS011;37569;50.548;8.778;2023-04-25T10:52:38;5.2;;;2.3;;
51491;SDS011;37569;50.548;8.778;2023-04-25T10:57:39;5.6;;;1.9;;
51491;SDS011;37569;50.548;8.778;2023-04-25T11:02:40;5.7;;;1.9;;
51491;SDS011;37569;50.548;8.778;2023-04-25T11:07:43;6.1;;;2.6;;
51491;SDS011;37569;50.548;8.778;2023-04-25T11:12:40;5.7;;;2.3;;
51491;SDS011;37569;50.548;8.778;2023-04-25T11:17:40;4.2;;;2.3;;
51491;SDS011;37569;50.548;8.778;2023-04-25T11:22:41;7;;;2.3;;
51491;SDS011;37569;50.548;8.778;2023-04-25T11:27:49;5.3;;;2.5;;
51491;SDS011;37569;50.548;8.778;2023-04-25T11:32:42;6.1;;;2.4;;
51491;SDS011;37569;50.548;8.778;2023-04-25T11:37:43;6.8;;;2.3;;
51491;SDS011;37569;50.548;8.778;2023-04-25T11:42:43;7.1;;;2.3;;
51491;SDS011;37569;50.548;8.778;2023-04-25T11:47:44;5.1;;;2.6;;
51491;SDS011;37569;50.548;8.778;2023-04-25T11:52:45;6.5;;;2.6;;
51491;SDS011;37569;50.548;8.778;2023-04-25T11:57:45;5.5;;;2.5;;
51491;SDS011;37569;50.548;8.778;2023-04-25T12:02:47;6.4;;;2.7;;
51491;SDS011;37569;50.548;8.778;2023-04-25T12:07:46;10;;;2.8;;
51491;SDS011;37569;50.548;8.778;2023-04-25T12:12:47;5.8;;;3.1;;
51491;SDS011;37569;50.548;8.778;2023-04-25T12:17:48;7.4;;;2.9;;
51491;SDS011;37569;50.548;8.778;2023-04-25T12:22:48;8;;;2.7;;
51491;SDS011;37569;50.548;8.778;2023-04-25T12:27:48;6.4;;;2.7;;
51491;SDS011;37569;50.548;8.778;2023-04-25T12:32:49;7.3;;;2.8;;
51491;SDS011;37569;50.548;8.778;2023-04-25T12:37:49;7.8;;;3;;
51491;SDS011;37569;50.548;8.778;2023-04-25T12:42:50;7.7;;;2.8;;
51491;SDS011;37569;50.548;8.778;2023-04-25T12:47:50;6.4;;;2.2;;
51491;SDS011;37569;50.548;8.778;2023-04-25T12:52:51;8.1;;;2.6;;
51491;SDS011;37569;50.548;8.778;2023-04-25T12:57:51;5.3;;;2.4;;
51491;SDS011;37569;50.548;8.778;2023-04-25T13:02:52;6.3;;;2.3;;
51491;SDS011;37569;50.548;8.778;2023-04-25T13:07:52;6.4;;;3;;
51491;SDS011;37569;50.548;8.778;2023-04-25T13:12:53;6.9;;;2.5;;
51491;SDS011;37569;50.548;8.778;2023-04-25T13:17:54;5.4;;;2.5;;
51491;SDS011;37569;50.548;8.778;2023-04-25T13:22:54;4.7;;;2.4;;
51491;SDS011;37569;50.548;8.778;2023-04-25T13:27:55;6.7;;;2.9;;
51491;SDS011;37569;50.548;8.778;2023-04-25T13:32:55;4.9;;;2.4;;
51491;SDS011;37569;50.548;8.778;2023-04-25T13:37:56;6;;;3;;
51491;SDS011;37569;50.548;8.778;2023-04-25T13:42:56;6.1;;;2.8;;
51491;SDS011;37569;50.548;8.778;2023-04-25T13:47:57;5.5;;;2.8;;
51491;SDS011;37569;50.548;8.778;2023-04-25T13:52:57;5.8;;;2.5;;
51491;SDS011;37569;50.548;8.778;2023-04-25T13:57:58;8.1;;;2.6;;
51491;SDS011;37569;50.548;8.778;2023-04-25T14:02:58;4.9;;;2.5;;
51491;SDS011;37569;50.548;8.778;2023-04-25T14:07:59;5.6;;;2.4;;
51491;SDS011;37569;50.548;8.778;2023-04-25T14:13:00;6.7;;;2.5;;
51491;SDS011;37569;50.548;8.778;2023-04-25T14:18:00;6.8;;;2.6;;
51491;SDS011;37569;50.548;8.778;2023-04-25T14:23:00;4.3;;;2.2;;
51491;SDS011;37569;50.548;8.778;2023-04-25T14:28:01;6.8;;;2.3;;
51491;SDS011;37569;50.548;8.778;2023-04-25T14:33:02;4.9;;;2.4;;
51491;SDS011;37569;50.548;8.778;2023-04-25T14:38:02;6.7;;;2;;
51491;SDS011;37569;50.548;8.778;2023-04-25T14:43:02;4.6;;;2.2;;
51491;SDS011;37569;50.548;8.778;2023-04-25T14:48:03;3.9;;;2.1;;
51491;SDS011;37569;50.548;8.778;2023-04-25T14:53:03;5.8;;;2.1;;
51491;SDS011;37569;50.548;8.778;2023-04-25T14:58:04;5;;;1.9;;
51491;SDS011;37569;50.548;8.778;2023-04-25T15:03:04;2.8;;;1.8;;
51491;SDS011;37569;50.548;8.778;2023-04-25T15:08:05;5.4;;;2;;
51491;SDS011;37569;50.548;8.778;2023-04-25T15:13:05;4.6;;;2;;
51491;SDS011;37569;50.548;8.778;2023-04-25T15:18:06;6.1;;;2.1;;
51491;SDS011;37569;50.548;8.778;2023-04-25T15:23:06;5.8;;;2.3;;
51491;SDS011;37569;50.548;8.778;2023-04-25T15:28:07;4.1;;;2.1;;
51491;SDS011;37569;50.548;8.778;2023-04-25T15:33:07;3.1;;;1.6;;
51491;SDS011;37569;50.548;8.778;2023-04-25T15:38:08;6.2;;;2;;
51491;SDS011;37569;50.548;8.778;2023-04-25T15:43:08;3.7;;;2;;
51491;SDS011;37569;50.548;8.778;2023-04-25T15:48:09;3.6;;;2;;
51491;SDS011;37569;50.548;8.778;2023-04-25T15:53:09;4.4;;;2.1;;
51491;SDS011;37569;50.548;8.778;2023-04-25T15:58:09;3.1;;;1.8;;
51491;SDS011;37569;50.548;8.778;2023-04-25T16:03:10;4.6;;;1.9;;
51491;SDS011;37569;50.548;8.778;2023-04-25T16:08:10;4.4;;;2;;
51491;SDS011;37569;50.548;8.778;2023-04-25T16:13:11;5;;;2.4;;
51491;SDS011;37569;50.548;8.778;2023-04-25T16:18:11;5.1;;;2;;
51491;SDS011;37569;50.548;8.778;2023-04-25T16:23:12;3.7;;;2;;
51491;SDS011;37569;50.548;8.778;2023-04-25T16:28:12;5.4;;;2.2;;
51491;SDS011;37569;50.548;8.778;2023-04-25T16:33:13;4.4;;;2;;
51491;SDS011;37569;50.548;8.778;2023-04-25T16:38:13;3.5;;;1.9;;
51491;SDS011;37569;50.548;8.778;2023-04-25T16:43:14;4.8;;;1.8;;
51491;SDS011;37569;50.548;8.778;2023-04-25T16:48:14;4.3;;;2;;
51491;SDS011;37569;50.548;8.778;2023-04-25T16:53:15;4.1;;;1.9;;
51491;SDS011;37569;50.548;8.778;2023-04-25T16:58:15;3.4;;;2.2;;
51491;SDS011;37569;50.548;8.778;2023-04-25T17:03:15;4.4;;;1.9;;
51491;SDS011;37569;50.548;8.778;2023-04-25T17:08:16;3.8;;;2;;
51491;SDS011;37569;50.548;8.778;2023-04-25T17:13:16;4.5;;;1.9;;
51491;SDS011;37569;50.548;8.778;2023-04-25T17:18:17;4;;;1.8;;
51491;SDS011;37569;50.548;8.778;2023-04-25T17:23:17;3.9;;;2.2;;
51491;SDS011;37569;50.548;8.778;2023-04-25T17:28:18;2.8;;;1.7;;
51491;SDS011;37569;50.548;8.778;2023-04-25T17:33:18;4.5;;;2;;
51491;SDS011;37569;50.548;8.778;2023-04-25T17:38:18;4;;;1.8;;
51491;SDS011;37569;50.548;8.778;2023-04-25T17:43:19;2.6;;;1.6;;
51491;SDS011;37569;50.548;8.778;2023-04-25T17:48:19;2.8;;;1.9;;
51491;SDS011;37569;50.548;8.778;2023-04-25T17:53:20;3.9;;;1.6;;
51491;SDS011;37569;50.548;8.778;2023-04-25T17:58:20;2.2;;;1.5;;
51491;SDS011;37569;50.548;8.778;2023-04-25T18:03:21;4;;;1.8;;
51491;SDS011;37569;50.548;8.778;2023-04-25T18:08:21;3.8;;;1.7;;
51491;SDS011;37569;50.548;8.778;2023-04-25T18:13:21;4.5;;;1.6;;
51491;SDS011;37569;50.548;8.778;2023-04-25T18:18:22;3.4;;;1.6;;
51491;SDS011;37569;50.548;8.778;2023-04-25T18:23:22;2.5;;;1.4;;
51491;SDS011;37569;50.548;8.778;2023-04-25T18:28:22;3.7;;;1.5;;
51491;SDS011;37569;50.548;8.778;2023-04-25T18:33:23;3.9;;;1.8;;
51491;SDS011;37569;50.548;8.778;2023-04-25T18:38:23;4.1;;;1.7;;
51491;SDS011;37569;50.548;8.778;2023-04-25T18:43:24;4.3;;;1.6;;
51491;SDS011;37569;50.548;8.778;2023-04-25T18:48:24;2.7;;;1.5;;
51491;SDS011;37569;50.548;8.778;2023-04-25T18:53:24;4.4;;;1.6;;
51491;SDS011;37569;50.548;8.778;2023-04-25T18:58:25;3;;;1.6;;
51491;SDS011;37569;50.548;8.778;2023-04-25T19:03:25;4.3;;;1.7;;
51491;SDS011;37569;50.548;8.778;2023-04-25T19:08:25;3.9;;;1.6;;
51491;SDS011;37569;50.548;8.778;2023-04-25T19:13:26;3.2;;;1.5;;
51491;SDS011;37569;50.548;8.778;2023-04-25T19:18:26;3.4;;;1.6;;
51491;SDS011;37569;50.548;8.778;2023-04-25T19:23:26;4.7;;;1.8;;
51491;SDS011;37569;50.548;8.778;2023-04-25T19:28:27;2.8;;;1.6;;
51491;SDS011;37569;50.548;8.778;2023-04-25T19:33:27;2.9;;;1.6;;
51491;SDS011;37569;50.548;8.778;2023-04-25T19:38:27;2.3;;;1.7;;
51491;SDS011;37569;50.548;8.778;2023-04-25T19:43:28;4.3;;;1.7;;
51491;SDS011;37569;50.548;8.778;2023-04-25T19:48:28;4.3;;;1.6;;
51491;SDS011;37569;50.548;8.778;2023-04-25T19:53:28;3.8;;;1.6;;
51491;SDS011;37569;50.548;8.778;2023-04-25T19:58:29;4.2;;;1.7;;
51491;SDS011;37569;50.548;8.778;2023-04-25T20:03:29;3;;;1.6;;
51491;SDS011;37569;50.548;8.778;2023-04-25T20:08:29;4.7;;;2.1;;
51491;SDS011;37569;50.548;8.778;2023-04-25T20:13:30;3.8;;;2.2;;
51491;SDS011;37569;50.548;8.778;2023-04-25T20:18:30;3.6;;;2.1;;
51491;SDS011;37569;50.548;8.778;2023-04-25T20:23:30;3.7;;;1.9;;
51491;SDS011;37569;50.548;8.778;2023-04-25T20:28:31;6.3;;;2.1;;
51491;SDS011;37569;50.548;8.778;2023-04-25T20:33:31;3.2;;;1.8;;
51491;SDS011;37569;50.548;8.778;2023-04-25T20:38:31;4.9;;;2.1;;
51491;SDS011;37569;50.548;8.778;2023-04-25T20:43:32;2.8;;;1.8;;
51491;SDS011;37569;50.548;8.778;2023-04-25T20:48:32;3.2;;;2;;
51491;SDS011;37569;50.548;8.778;2023-04-25T20:53:32;4.1;;;1.9;;
51491;SDS011;37569;50.548;8.778;2023-04-25T20:58:33;2.4;;;1.7;;
51491;SDS011;37569;50.548;8.778;2023-04-25T21:03:33;3.7;;;1.8;;
51491;SDS011;37569;50.548;8.778;2023-04-25T21:08:33;3.6;;;1.6;;
51491;SDS011;37569;50.548;8.778;2023-04-25T21:13:34;4.7;;;1.8;;
51491;SDS011;37569;50.548;8.778;2023-04-25T21:18:34;2.8;;;1.7;;
51491;SDS011;37569;50.548;8.778;2023-04-25T21:23:34;5;;;1.9;;
51491;SDS011;37569;50.548;8.778;2023-04-25T21:28:35;4.5;;;1.8;;
51491;SDS011;37569;50.548;8.778;2023-04-25T21:33:35;5.2;;;2;;
51491;SDS011;37569;50.548;8.778;2023-04-25T21:38:35;5.9;;;2.1;;
51491;SDS011;37569;50.548;8.778;2023-04-25T21:43:36;4;;;2;;
51491;SDS011;37569;50.548;8.778;2023-04-25T21:48:36;3.8;;;1.8;;
51491;SDS011;37569;50.548;8.778;2023-04-25T21:53:36;2.8;;;1.9;;
51491;SDS011;37569;50.548;8.778;2023-04-25T21:58:36;3.5;;;1.9;;
51491;SDS011;37569;50.548;8.778;2023-04-25T22:03:37;4.1;;;1.9;;
51491;SDS011;37569;50.548;8.778;2023-04-25T22:08:37;3.8;;;2;;
51491;SDS011;37569;50.548;8.778;2023-04-25T22:13:37;5.4;;;3;;
51491;SDS011;37569;50.548;8.778;2023-04-25T22:18:38;3.9;;;2.1;;
51491;SDS011;37569;50.548;8.778;2023-04-25T22:23:38;3.4;;;2;;
51491;SDS011;37569;50.548;8.778;2023-04-25T22:28:38;3.7;;;2.1;;
51491;SDS011;37569;50.548;8.778;2023-04-25T22:33:38;3.9;;;2.3;;
51491;SDS011;37569;50.548;8.778;2023-04-25T22:38:39;3.8;;;1.9;;
51491;SDS011;37569;50.548;8.778;2023-04-25T22:43:39;4.7;;;2.4;;
51491;SDS011;37569;50.548;8.778;2023-04-25T22:48:39;4.2;;;2.3;;
51491;SDS011;37569;50.548;8.778;2023-04-25T22:53:40;5.1;;;2.5;;
51491;SDS011;37569;50.548;8.778;2023-04-25T22:58:40;6.6;;;2.6;;
51491;SDS011;37569;50.548;8.778;2023-04-25T23:03:40;4.3;;;2.4;;
51491;SDS011;37569;50.548;8.778;2023-04-25T23:08:40;7.5;;;2.8;;
51491;SDS011;37569;50.548;8.778;2023-04-25T23:13:41;6.2;;;2.8;;
51491;SDS011;37569;50.548;8.778;2023-04-25T23:18:41;5;;;2.7;;
51491;SDS011;37569;50.548;8.778;2023-04-25T23:23:41;4.7;;;2.7;;
51491;SDS011;37569;50.548;8.778;2023-04-25T23:28:41;4.9;;;2.5;;
51491;SDS011;37569;50.548;8.778;2023-04-25T23:33:41;4.4;;;2.9;;
51491;SDS011;37569;50.548;8.778;2023-04-25T23:38:42;4.9;;;2.6;;
51491;SDS011;37569;50.548;8.778;2023-04-25T23:43:42;6.6;;;2.8;;
51491;SDS011;37569;50.548;8.778;2023-04-25T23:48:42;5.6;;;3;;
51491;SDS011;37569;50.548;8.778;2023-04-25T23:53:42;5.3;;;2.8;;
51491;SDS011;37569;50.548;8.778;2023-04-25T23:58:42;5.3;;;2.5;;
